Time,TemperatureF,DewpointF,PressureIn,WindDirection,WindDirectionDegrees,WindSpeedMPH,WindSpeedGustMPH,Humidity,HourlyPrecipIn,Conditions,Clouds,dailyrainin,SolarRadiationWatts/m^2,SoftwareType,DateUTC
2013-07-24 00:00:00,84.5,69.1,29.94,South,182,6.9,6.9,60,0.00,CLR,,0.00,1.0,WeatherDisplay:10.37,2013-07-24 05:00:00,
2013-07-24 00:05:00,84.4,69.5,29.94,South,172,8.1,8.1,61,0.00,CLR,,0.00,1.0,WeatherDisplay:10.37,2013-07-24 05:05:00,
2013-07-24 00:11:00,84.3,69.4,29.94,South,182,8.1,8.1,61,0.00,CLR,,0.00,1.0,WeatherDisplay:10.37,2013-07-24 05:11:00,
2013-07-24 00:16:00,84.2,69.3,29.94,South,176,9.2,9.2,61,0.00,CLR,,0.00,1.0,WeatherDisplay:10.37,2013-07-24 05:16:00,
2013-07-24 00:21:00,84.1,69.7,29.93,South,176,8.1,8.1,62,0.00,CLR,,0.00,2.0,WeatherDisplay:10.37,2013-07-24 05:21:00,
2013-07-24 00:27:00,83.9,70.0,29.94,South,179,11.5,11.5,63,0.00,CLR,,0.00,1.0,WeatherDisplay:10.37,2013-07-24 05:27:00,
2013-07-24 00:32:00,83.8,69.9,29.94,SSW,193,9.2,9.2,63,0.00,CLR,,0.00,2.0,WeatherDisplay:10.37,2013-07-24 05:32:00,
2013-07-24 00:37:00,83.7,70.2,29.93,SSW,198,9.9,9.9,64,0.00,CLR,,0.00,2.0,WeatherDisplay:10.37,2013-07-24 05:37:00,
2013-07-24 00:42:00,83.6,70.1,29.93,SSW,196,9.2,9.2,64,0.00,CLR,,0.00,1.0,WeatherDisplay:10.37,2013-07-24 05:42:00,
2013-07-24 00:47:00,83.5,70.0,29.93,SSW,195,12.7,12.7,64,0.00,CLR,,0.00,1.0,WeatherDisplay:10.37,2013-07-24 05:47:00,
2013-07-24 00:52:00,83.4,69.9,29.93,SSW,196,11.5,11.5,64,0.00,CLR,,0.00,1.0,WeatherDisplay:10.37,2013-07-24 05:52:00,
2013-07-24 00:58:00,83.3,70.3,29.93,SSW,195,10.4,10.4,65,0.00,CLR,,0.00,1.0,WeatherDisplay:10.37,2013-07-24 05:58:00,
2013-07-24 01:03:00,83.2,70.2,29.93,SSW,193,10.4,10.4,65,0.00,CLR,,0.00,1.0,WeatherDisplay:10.37,2013-07-24 06:03:00,
2013-07-24 01:08:00,83.1,70.1,29.93,SSW,212,10.4,10.4,65,0.00,CLR,,0.00,1.0,WeatherDisplay:10.37,2013-07-24 06:08:00,
2013-07-24 01:13:00,83.0,70.0,29.93,SSW,206,9.2,9.2,65,0.00,CLR,,0.00,2.0,WeatherDisplay:10.37,2013-07-24 06:13:00,
2013-07-24 01:18:00,82.9,70.4,29.93,SSW,194,11.4,11.4,66,0.00,CLR,,0.00,1.0,WeatherDisplay:10.37,2013-07-24 06:18:00,
2013-07-24 01:23:00,82.8,70.3,29.93,SSW,202,13.2,13.2,66,0.00,CLR,,0.00,2.0,WeatherDisplay:10.37,2013-07-24 06:23:00,
2013-07-24 01:29:00,82.8,70.3,29.93,SSW,202,12.7,12.7,66,0.00,CLR,,0.00,2.0,WeatherDisplay:10.37,2013-07-24 06:29:00,
2013-07-24 01:34:00,82.8,70.3,29.94,South,172,9.2,9.2,66,0.00,CLR,,0.00,2.0,WeatherDisplay:10.37,2013-07-24 06:34:00,
2013-07-24 01:39:00,82.9,70.4,29.94,SW,220,11.5,11.5,66,0.00,CLR,,0.00,2.0,WeatherDisplay:10.37,2013-07-24 06:39:00,
2013-07-24 01:44:00,82.8,70.3,29.93,South,185,10.4,10.4,66,0.00,CLR,,0.00,1.0,WeatherDisplay:10.37,2013-07-24 06:44:00,
2013-07-24 01:50:00,82.7,70.6,29.93,SSW,205,9.0,13.0,67,0.00,CLR,,0.00,0.0,WeatherDisplay:10.37,2013-07-24 06:50:00,
2013-07-24 01:55:00,82.5,70.5,29.93,SSW,207,8.0,14.0,67,0.00,CLR,,0.00,1.0,WeatherDisplay:10.37,2013-07-24 06:55:00,
2013-07-24 02:00:00,82.5,70.4,29.93,SSW,207,9.0,14.0,67,0.00,CLR,,0.00,0.0,WeatherDisplay:10.37,2013-07-24 07:00:00,
2013-07-24 02:05:00,82.4,70.3,29.93,SSW,206,10.0,17.0,67,0.00,CLR,,0.00,0.0,WeatherDisplay:10.37,2013-07-24 07:05:00,
2013-07-24 02:10:00,82.5,70.4,29.93,SSW,209,10.0,15.0,67,0.00,CLR,,0.00,0.0,WeatherDisplay:10.37,2013-07-24 07:10:00,
2013-07-24 02:15:00,82.5,70.4,29.94,SSW,210,7.0,15.0,67,0.00,CLR,,0.00,0.0,WeatherDisplay:10.37,2013-07-24 07:15:00,
2013-07-24 02:20:00,82.5,70.4,29.95,SSW,206,7.0,10.0,67,0.00,CLR,,0.00,0.0,WeatherDisplay:10.37,2013-07-24 07:20:00,
2013-07-24 02:25:00,82.5,70.4,29.95,SSW,201,8.0,12.0,67,0.00,CLR,,0.00,0.0,WeatherDisplay:10.37,2013-07-24 07:25:00,
2013-07-24 02:30:00,82.4,70.3,29.95,SSW,198,3.0,8.0,67,0.00,CLR,,0.00,2.0,WeatherDisplay:10.37,2013-07-24 07:30:00,
2013-07-24 02:35:00,82.3,70.2,29.95,SSW,198,6.0,9.0,67,0.00,CLR,,0.00,0.0,WeatherDisplay:10.37,2013-07-24 07:35:00,
2013-07-24 02:40:00,82.1,70.5,29.95,SSW,202,7.0,10.0,68,0.00,CLR,,0.00,0.0,WeatherDisplay:10.37,2013-07-24 07:40:00,
2013-07-24 02:45:00,82.0,70.4,29.96,SSW,202,8.1,8.1,68,0.00,CLR,,0.00,2.0,WeatherDisplay:10.37,2013-07-24 07:45:00,
2013-07-24 02:50:00,81.9,70.3,29.96,South,179,6.9,6.9,68,0.00,CLR,,0.00,1.0,WeatherDisplay:10.37,2013-07-24 07:50:00,
2013-07-24 02:55:00,81.8,70.2,29.96,SSE,155,8.1,8.1,68,0.00,CLR,,0.00,1.0,WeatherDisplay:10.37,2013-07-24 07:55:00,
2013-07-24 03:00:00,81.6,70.4,29.95,South,182,8.1,8.1,69,0.00,CLR,,0.00,2.0,WeatherDisplay:10.37,2013-07-24 08:00:00,
2013-07-24 03:05:00,81.3,70.2,29.95,SSW,199,9.2,9.2,69,0.00,CLR,,0.00,1.0,WeatherDisplay:10.37,2013-07-24 08:05:00,
2013-07-24 03:11:00,81.1,70.4,29.95,SSW,199,9.3,9.3,70,0.00,CLR,,0.00,1.0,WeatherDisplay:10.37,2013-07-24 08:11:00,
2013-07-24 03:16:00,80.9,70.2,29.95,South,185,8.1,8.1,70,0.00,CLR,,0.00,2.0,WeatherDisplay:10.37,2013-07-24 08:16:00,
2013-07-24 03:21:00,80.8,70.5,29.94,South,191,10.4,10.4,71,0.00,CLR,,0.00,1.0,WeatherDisplay:10.37,2013-07-24 08:21:00,
2013-07-24 03:26:00,80.5,70.6,29.94,SSW,196,12.7,12.7,72,0.00,CLR,,0.00,1.0,WeatherDisplay:10.37,2013-07-24 08:26:00,
2013-07-24 03:32:00,80.4,70.5,29.94,SSW,212,12.7,12.7,72,0.00,CLR,,0.00,1.0,WeatherDisplay:10.37,2013-07-24 08:32:00,
2013-07-24 03:37:00,80.3,70.9,29.94,SSW,204,12.7,12.7,73,0.00,CLR,,0.00,1.0,WeatherDisplay:10.37,2013-07-24 08:37:00,
2013-07-24 03:42:00,80.2,70.8,29.94,SSW,193,13.8,13.8,73,0.00,CLR,,0.00,1.0,WeatherDisplay:10.37,2013-07-24 08:42:00,
2013-07-24 03:47:00,80.1,71.1,29.93,SSW,213,16.5,16.5,74,0.00,CLR,,0.00,2.0,WeatherDisplay:10.37,2013-07-24 08:47:00,
2013-07-24 03:52:00,80.0,71.0,29.93,SSW,207,12.7,12.7,74,0.00,CLR,,0.00,1.0,WeatherDisplay:10.37,2013-07-24 08:52:00,
2013-07-24 03:58:00,79.9,71.3,29.94,SSW,193,15.0,15.0,75,0.00,CLR,,0.00,1.0,WeatherDisplay:10.37,2013-07-24 08:58:00,
2013-07-24 04:03:00,80.0,71.8,29.94,SSW,200,13.8,13.8,76,0.00,CLR,,0.00,1.0,WeatherDisplay:10.37,2013-07-24 09:03:00,
2013-07-24 04:08:00,80.1,71.8,29.94,South,190,16.1,16.1,76,0.00,CLR,,0.00,1.0,WeatherDisplay:10.37,2013-07-24 09:08:00,
2013-07-24 04:13:00,80.2,71.9,29.95,SW,216,13.8,13.8,76,0.00,CLR,,0.00,2.0,WeatherDisplay:10.37,2013-07-24 09:13:00,
2013-07-24 04:18:00,80.2,71.9,29.95,SW,224,10.4,10.4,76,0.00,CLR,,0.00,2.0,WeatherDisplay:10.37,2013-07-24 09:18:00,
2013-07-24 04:23:00,80.2,72.3,29.96,SSW,195,9.2,9.2,77,0.00,CLR,,0.00,1.0,WeatherDisplay:10.37,2013-07-24 09:23:00,
2013-07-24 04:28:00,80.2,72.3,29.96,SW,216,9.3,9.3,77,0.00,CLR,,0.00,1.0,WeatherDisplay:10.37,2013-07-24 09:28:00,
2013-07-24 04:33:00,80.2,72.3,29.97,SW,234,12.7,12.7,77,0.00,CLR,,0.00,1.0,WeatherDisplay:10.37,2013-07-24 09:33:00,
2013-07-24 04:39:00,80.2,72.7,29.97,SW,220,4.8,4.8,78,0.00,CLR,,0.00,1.0,WeatherDisplay:10.37,2013-07-24 09:39:00,
2013-07-24 04:44:00,80.1,72.6,29.98,SW,224,8.1,8.1,78,0.00,CLR,,0.00,1.0,WeatherDisplay:10.37,2013-07-24 09:44:00,
2013-07-24 04:49:00,80.1,72.6,29.98,SW,230,6.9,6.9,78,0.00,CLR,,0.00,1.0,WeatherDisplay:10.37,2013-07-24 09:49:00,
2013-07-24 04:54:00,80.1,73.0,29.98,SSW,202,8.1,8.1,79,0.00,CLR,,0.00,1.0,WeatherDisplay:10.37,2013-07-24 09:54:00,
2013-07-24 04:59:00,80.1,73.0,29.98,SSW,209,5.8,5.8,79,0.00,CLR,,0.00,1.0,WeatherDisplay:10.37,2013-07-24 09:59:00,
2013-07-24 05:04:00,80.0,73.3,29.98,SW,229,10.4,10.4,80,0.00,CLR,,0.00,1.0,WeatherDisplay:10.37,2013-07-24 10:04:00,
2013-07-24 05:10:00,80.0,73.3,29.98,SW,215,7.0,12.0,80,0.00,CLR,,0.00,0.0,WeatherDisplay:10.37,2013-07-24 10:10:00,
2013-07-24 05:15:00,80.0,73.6,29.99,SW,214,6.0,10.0,81,0.00,CLR,,0.00,0.0,WeatherDisplay:10.37,2013-07-24 10:15:00,
2013-07-24 05:20:00,80.0,73.6,29.99,SW,215,5.0,9.0,81,0.00,CLR,,0.00,0.0,WeatherDisplay:10.37,2013-07-24 10:20:00,
2013-07-24 05:25:00,80.0,73.6,29.99,SW,216,5.0,9.0,81,0.00,CLR,,0.00,0.0,WeatherDisplay:10.37,2013-07-24 10:25:00,
2013-07-24 05:30:00,80.0,73.6,29.99,SW,217,5.0,8.0,81,0.00,CLR,,0.00,2.0,WeatherDisplay:10.37,2013-07-24 10:30:00,
2013-07-24 05:35:00,80.0,74.0,30.03,SW,235,13.0,20.0,82,0.00,CLR,,0.00,1.0,WeatherDisplay:10.37,2013-07-24 10:35:00,
2013-07-24 05:40:00,79.8,72.8,30.04,NE,34,20.0,31.0,79,0.00,CLR,,0.00,1.0,WeatherDisplay:10.37,2013-07-24 10:40:00,
2013-07-24 05:45:00,80.3,72.0,30.04,NE,45,15.0,15.0,76,0.00,CLR,,0.00,2.0,WeatherDisplay:10.37,2013-07-24 10:45:00,
2013-07-24 05:50:00,80.6,72.3,30.02,NNE,21,8.1,8.1,76,0.00,CLR,,0.00,1.0,WeatherDisplay:10.37,2013-07-24 10:50:00,
2013-07-24 05:55:00,80.9,72.6,30.04,NE,46,19.6,19.6,76,0.00,CLR,,0.00,1.0,WeatherDisplay:10.37,2013-07-24 10:55:00,
2013-07-24 06:00:00,81.1,72.8,30.04,NE,52,15.3,15.6,76,0.00,CLR,,0.00,2.0,WeatherDisplay:10.37,2013-07-24 11:00:00,
2013-07-24 06:05:00,80.8,72.9,30.04,NNE,31,25.3,25.3,77,0.00,OVC,,0.00,2.0,WeatherDisplay:10.37,2013-07-24 11:05:00,
2013-07-24 06:10:00,79.8,73.1,30.05,ENE,59,24.2,24.2,80,0.00,OVC,,0.00,1.0,WeatherDisplay:10.37,2013-07-24 11:10:00,
2013-07-24 06:16:00,79.0,73.4,30.05,ENE,63,23.7,23.7,83,0.00,OVC,,0.00,1.0,WeatherDisplay:10.37,2013-07-24 11:16:00,
2013-07-24 06:21:00,78.0,72.8,30.05,ENE,58,24.2,24.2,84,0.00,OVC,,0.00,2.0,WeatherDisplay:10.37,2013-07-24 11:21:00,
2013-07-24 06:26:00,77.1,72.2,30.05,ENE,78,24.2,24.2,85,0.00,OVC,,0.00,2.0,WeatherDisplay:10.37,2013-07-24 11:26:00,
2013-07-24 06:31:00,76.6,72.1,30.04,East,94,24.2,24.2,86,0.00,OVC,,0.00,2.0,WeatherDisplay:10.37,2013-07-24 11:31:00,
2013-07-24 06:36:00,76.3,72.1,30.05,East,84,20.7,20.7,87,0.00,OVC,,0.00,2.0,WeatherDisplay:10.37,2013-07-24 11:36:00,
2013-07-24 06:42:00,75.9,72.1,30.05,East,82,23.0,23.0,88,0.00,OVC,,0.00,4.0,WeatherDisplay:10.37,2013-07-24 11:42:00,
2013-07-24 06:47:00,75.6,71.8,30.05,East,83,25.3,25.3,88,0.00,OVC,,0.00,8.0,WeatherDisplay:10.37,2013-07-24 11:47:00,
2013-07-24 06:52:00,75.5,71.7,30.04,East,94,16.1,16.1,88,0.00,OVC,,0.00,11.0,WeatherDisplay:10.37,2013-07-24 11:52:00,
2013-07-24 06:57:00,75.3,71.8,30.03,East,92,17.3,17.3,89,0.00,OVC,,0.00,19.0,WeatherDisplay:10.37,2013-07-24 11:57:00,
2013-07-24 07:03:00,75.3,71.8,30.03,SE,130,24.2,24.2,89,0.00,OVC,,0.00,20.0,WeatherDisplay:10.37,2013-07-24 12:03:00,
2013-07-24 07:08:00,75.3,71.8,30.03,East,92,17.3,17.3,89,0.00,OVC,,0.00,28.0,WeatherDisplay:10.37,2013-07-24 12:08:00,
2013-07-24 07:13:00,75.2,71.7,30.03,ESE,117,19.6,19.6,89,0.00,OVC,,0.00,29.0,WeatherDisplay:10.37,2013-07-24 12:13:00,
2013-07-24 07:18:00,75.2,71.4,30.03,ESE,112,20.7,20.7,88,0.00,OVC,,0.00,35.0,WeatherDisplay:10.37,2013-07-24 12:18:00,
2013-07-24 07:23:00,75.2,71.4,30.03,East,94,18.6,18.6,88,0.00,OVC,,0.00,38.0,WeatherDisplay:10.37,2013-07-24 12:23:00,
2013-07-24 07:28:00,75.2,71.4,30.04,East,94,19.6,19.6,88,0.00,OVC,,0.00,35.0,WeatherDisplay:10.37,2013-07-24 12:28:00,
2013-07-24 07:33:00,75.0,71.5,30.04,ESE,115,20.4,20.4,89,0.00,OVC,,0.00,37.0,WeatherDisplay:10.37,2013-07-24 12:33:00,
2013-07-24 07:38:00,75.0,71.5,30.04,ESE,102,18.4,18.4,89,0.00,OVC,,0.00,49.0,WeatherDisplay:10.37,2013-07-24 12:38:00,
2013-07-24 07:44:00,75.1,71.6,30.05,ESE,103,16.1,16.1,89,0.00,OVC,,0.00,72.0,WeatherDisplay:10.37,2013-07-24 12:44:00,
2013-07-24 07:50:00,75.3,72.2,30.05,ESE,115,8.0,14.0,90,0.00,OVC,,0.00,72.0,WeatherDisplay:10.37,2013-07-24 12:50:00,
2013-07-24 07:55:00,75.4,72.3,30.05,ESE,117,10.0,17.0,90,0.00,OVC,,0.00,74.0,WeatherDisplay:10.37,2013-07-24 12:55:00,
2013-07-24 08:00:00,75.5,72.4,30.05,ESE,116,6.0,17.0,90,0.00,OVC,,0.00,78.0,WeatherDisplay:10.37,2013-07-24 13:00:00,
2013-07-24 08:05:00,75.7,72.6,30.05,ESE,115,12.0,19.0,90,0.00,OVC,,0.00,102.0,WeatherDisplay:10.37,2013-07-24 13:05:00,
2013-07-24 08:10:00,75.9,72.4,30.05,ESE,118,10.0,17.0,89,0.00,OVC,,0.00,127.0,WeatherDisplay:10.37,2013-07-24 13:10:00,
2013-07-24 08:15:00,76.1,72.6,30.05,ENE,76,16.1,16.1,89,0.00,OVC,,0.00,153.0,WeatherDisplay:10.37,2013-07-24 13:15:00,
2013-07-24 08:20:00,76.3,72.8,30.04,ESE,103,9.2,9.2,89,0.00,OVC,,0.00,186.0,WeatherDisplay:10.37,2013-07-24 13:20:00,
2013-07-24 08:25:00,76.5,73.0,30.04,ESE,102,12.7,12.7,89,0.00,OVC,,0.00,199.0,WeatherDisplay:10.37,2013-07-24 13:25:00,
2013-07-24 08:31:00,76.9,73.4,30.04,SE,124,10.4,10.4,89,0.00,OVC,,0.00,204.0,WeatherDisplay:10.37,2013-07-24 13:31:00,
2013-07-24 08:36:00,76.9,72.7,30.05,SE,131,11.5,11.5,87,0.00,OVC,,0.00,208.0,WeatherDisplay:10.37,2013-07-24 13:36:00,
2013-07-24 08:41:00,77.1,72.9,30.05,SE,135,12.7,12.7,87,0.00,OVC,,0.00,206.0,WeatherDisplay:10.37,2013-07-24 13:41:00,
2013-07-24 08:46:00,77.0,72.8,30.05,ESE,123,11.5,11.5,87,0.00,OVC,,0.00,205.0,WeatherDisplay:10.37,2013-07-24 13:46:00,
2013-07-24 08:51:00,77.4,73.2,30.06,East,99,6.3,6.3,87,0.00,OVC,,0.00,208.0,WeatherDisplay:10.37,2013-07-24 13:51:00,
2013-07-24 08:56:00,77.6,73.4,30.06,SE,130,6.9,6.9,87,0.00,OVC,,0.00,218.0,WeatherDisplay:10.37,2013-07-24 13:56:00,
2013-07-24 09:01:00,77.8,73.3,30.07,East,99,5.8,5.8,86,0.00,OVC,,0.00,211.0,WeatherDisplay:10.37,2013-07-24 14:01:00,
2013-07-24 09:06:00,78.0,73.5,30.07,SE,144,8.7,8.7,86,0.00,OVC,,0.00,209.0,WeatherDisplay:10.37,2013-07-24 14:06:00,
2013-07-24 09:12:00,78.2,73.7,30.07,SE,124,8.1,8.1,86,0.00,OVC,,0.00,218.0,WeatherDisplay:10.37,2013-07-24 14:12:00,
2013-07-24 09:17:00,78.4,73.9,30.07,SE,140,8.1,8.1,86,0.00,OVC,,0.00,255.0,WeatherDisplay:10.37,2013-07-24 14:17:00,
2013-07-24 09:22:00,78.5,73.6,30.07,SSE,153,9.2,9.2,85,0.00,OVC,,0.00,334.0,WeatherDisplay:10.37,2013-07-24 14:22:00,
2013-07-24 09:27:00,78.8,73.9,30.07,SE,132,6.9,6.9,85,0.00,OVC,,0.00,358.0,WeatherDisplay:10.37,2013-07-24 14:27:00,
2013-07-24 09:32:00,79.1,73.8,30.08,NNE,33,3.6,3.6,84,0.00,OVC,,0.00,162.0,WeatherDisplay:10.37,2013-07-24 14:32:00,
2013-07-24 09:37:00,79.0,73.7,30.08,North,353,4.6,4.6,84,0.00,OVC,,0.00,97.0,WeatherDisplay:10.37,2013-07-24 14:37:00,
2013-07-24 09:42:00,78.9,73.7,30.10,North,354,10.4,10.4,84,0.00,OVC,,0.00,41.0,WeatherDisplay:10.37,2013-07-24 14:42:00,
2013-07-24 09:48:00,78.3,73.4,30.11,NW,316,16.1,16.1,85,0.00,OVC,,0.00,15.0,WeatherDisplay:10.37,2013-07-24 14:48:00,
2013-07-24 09:53:00,77.9,72.7,30.11,NNW,345,26.5,26.5,84,0.00,OVC,,0.00,50.0,WeatherDisplay:10.37,2013-07-24 14:53:00,
2013-07-24 09:58:00,77.4,72.2,30.11,NNW,348,19.6,19.6,84,0.00,OVC,,0.00,65.0,WeatherDisplay:10.37,2013-07-24 14:58:00,
2013-07-24 10:03:00,77.0,72.1,30.11,North,350,16.1,16.1,85,0.00,OVC,,0.00,176.0,WeatherDisplay:10.37,2013-07-24 15:03:00,
2013-07-24 10:09:00,77.0,72.5,30.11,WNW,295,13.8,13.8,86,0.00,OVC,,0.00,153.0,WeatherDisplay:10.37,2013-07-24 15:09:00,
2013-07-24 10:14:00,76.8,72.3,30.11,North,8,16.1,16.1,86,0.00,OVC,,0.00,149.0,WeatherDisplay:10.37,2013-07-24 15:14:00,
2013-07-24 10:19:00,76.6,72.4,30.10,NNW,348,17.3,17.3,87,0.00,OVC,,0.00,116.0,WeatherDisplay:10.37,2013-07-24 15:19:00,
2013-07-24 10:24:00,76.4,72.2,30.09,NNE,24,13.8,13.8,87,0.00,OVC,,0.00,110.0,WeatherDisplay:10.37,2013-07-24 15:24:00,
2013-07-24 10:30:00,76.4,72.2,30.09,North,11,9.0,10.0,87,0.00,OVC,,0.00,141.0,WeatherDisplay:10.37,2013-07-24 15:30:00,
2013-07-24 10:35:00,76.4,72.5,30.09,NNE,25,7.0,10.0,88,0.00,OVC,,0.00,192.0,WeatherDisplay:10.37,2013-07-24 15:35:00,
2013-07-24 10:40:00,76.4,72.9,30.08,NNE,25,3.0,12.0,89,0.00,OVC,,0.00,205.0,WeatherDisplay:10.37,2013-07-24 15:40:00,
2013-07-24 10:45:00,76.3,72.8,30.08,North,10,5.0,6.0,89,0.00,OVC,,0.00,182.0,WeatherDisplay:10.37,2013-07-24 15:45:00,
2013-07-24 10:50:00,76.4,73.2,30.07,NNW,338,3.0,5.0,90,0.00,OVC,,0.00,222.0,WeatherDisplay:10.37,2013-07-24 15:50:00,
2013-07-24 10:55:00,76.6,73.1,30.06,NNE,33,3.5,3.5,89,0.00,OVC,,0.00,281.0,WeatherDisplay:10.37,2013-07-24 15:55:00,
2013-07-24 11:00:00,77.1,73.6,30.05,South,175,3.5,3.5,89,0.00,OVC,,0.00,444.0,WeatherDisplay:10.37,2013-07-24 16:00:00,
2013-07-24 11:05:00,77.9,74.1,30.05,WSW,243,4.6,4.6,88,0.00,OVC,,0.00,583.0,WeatherDisplay:10.37,2013-07-24 16:05:00,
2013-07-24 11:10:00,78.0,73.1,30.05,WSW,248,4.6,4.6,85,0.00,OVC,,0.00,412.0,WeatherDisplay:10.37,2013-07-24 16:10:00,
2013-07-24 11:15:00,78.3,73.4,30.04,SW,231,6.0,6.0,85,0.00,OVC,,0.00,449.0,WeatherDisplay:10.37,2013-07-24 16:15:00,
2013-07-24 11:20:00,78.6,73.4,30.03,SSW,197,10.4,10.4,84,0.00,OVC,,0.00,517.0,WeatherDisplay:10.37,2013-07-24 16:20:00,
2013-07-24 11:25:00,79.1,73.1,30.02,SW,221,11.5,11.5,82,0.00,OVC,,0.00,567.0,WeatherDisplay:10.37,2013-07-24 16:25:00,
2013-07-24 11:30:00,79.5,73.2,30.02,SW,233,11.5,11.5,81,0.00,OVC,,0.00,594.0,WeatherDisplay:10.37,2013-07-24 16:30:00,
2013-07-24 11:36:00,79.9,73.5,30.01,SW,223,12.7,12.7,81,0.00,OVC,,0.00,570.0,WeatherDisplay:10.37,2013-07-24 16:36:00,
2013-07-24 11:41:00,80.3,73.2,30.00,WSW,241,10.4,10.4,79,0.00,OVC,,0.00,517.0,WeatherDisplay:10.37,2013-07-24 16:41:00,
2013-07-24 11:46:00,80.5,73.0,30.00,WSW,242,11.5,11.5,78,0.00,OVC,,0.00,509.0,WeatherDisplay:10.37,2013-07-24 16:46:00,
2013-07-24 11:52:00,80.9,74.1,29.99,SSW,206,10.4,10.4,80,0.00,OVC,,0.00,427.0,WeatherDisplay:10.37,2013-07-24 16:52:00,
2013-07-24 11:57:00,80.9,73.8,29.99,SW,227,16.1,16.1,79,0.00,OVC,,0.00,367.0,WeatherDisplay:10.37,2013-07-24 16:57:00,
2013-07-24 12:02:00,80.7,73.6,29.98,SW,223,16.1,16.1,79,0.00,OVC,,0.00,336.0,WeatherDisplay:10.37,2013-07-24 17:02:00,
2013-07-24 12:08:00,80.9,73.8,29.97,SSW,197,15.0,15.0,79,0.00,OVC,,0.00,288.0,WeatherDisplay:10.37,2013-07-24 17:08:00,
2013-07-24 12:13:00,81.0,73.9,29.97,SSW,196,13.8,13.8,79,0.00,OVC,,0.00,268.0,WeatherDisplay:10.37,2013-07-24 17:13:00,
2013-07-24 12:18:00,81.4,74.6,29.96,South,180,16.5,16.5,80,0.00,OVC,,0.00,275.0,WeatherDisplay:10.37,2013-07-24 17:18:00,
2013-07-24 12:23:00,81.6,74.5,29.96,South,184,17.3,17.3,79,0.00,OVC,,0.00,312.0,WeatherDisplay:10.37,2013-07-24 17:23:00,
2013-07-24 12:28:00,81.9,74.7,29.95,SSW,204,16.8,16.8,79,0.00,OVC,,0.00,350.0,WeatherDisplay:10.37,2013-07-24 17:28:00,
2013-07-24 12:33:00,82.3,75.1,29.96,SSW,208,17.3,17.3,79,0.00,CLR,,0.00,391.0,WeatherDisplay:10.37,2013-07-24 17:33:00,
2013-07-24 12:38:00,82.8,75.2,29.98,SW,222,9.2,9.2,78,0.00,CLR,,0.00,554.0,WeatherDisplay:10.37,2013-07-24 17:38:00,
2013-07-24 12:44:00,83.5,75.5,29.98,SW,227,13.8,13.8,77,0.00,CLR,,0.00,541.0,WeatherDisplay:10.37,2013-07-24 17:44:00,
2013-07-24 12:49:00,83.8,75.4,29.98,SW,220,15.0,15.0,76,0.00,CLR,,0.00,431.0,WeatherDisplay:10.37,2013-07-24 17:49:00,
2013-07-24 12:54:00,83.6,75.2,29.98,SW,219,10.4,10.4,76,0.00,CLR,,0.00,390.0,WeatherDisplay:10.37,2013-07-24 17:54:00,
2013-07-24 12:59:00,83.7,75.3,29.97,SW,218,12.7,12.7,76,0.00,CLR,,0.00,370.0,WeatherDisplay:10.37,2013-07-24 17:59:00,
2013-07-24 13:04:00,83.6,74.8,29.97,SSW,206,12.7,12.7,75,0.00,CLR,,0.00,349.0,WeatherDisplay:10.37,2013-07-24 18:04:00,
2013-07-24 13:10:00,83.9,75.5,29.97,SW,221,11.5,11.5,76,0.00,CLR,,0.00,368.0,WeatherDisplay:10.37,2013-07-24 18:10:00,
2013-07-24 13:15:00,83.8,75.0,29.97,WSW,240,15.0,15.0,75,0.00,CLR,,0.00,389.0,WeatherDisplay:10.37,2013-07-24 18:15:00,
2013-07-24 13:20:00,83.8,75.4,29.97,SW,226,13.8,13.8,76,0.00,CLR,,0.00,371.0,WeatherDisplay:10.37,2013-07-24 18:20:00,
2013-07-24 13:25:00,84.0,75.6,29.97,SW,229,9.0,14.0,76,0.00,CLR,,0.00,368.0,WeatherDisplay:10.37,2013-07-24 18:25:00,
2013-07-24 13:30:00,84.3,75.9,29.98,West,267,10.5,10.5,76,0.00,CLR,,0.00,395.0,WeatherDisplay:10.37,2013-07-24 18:30:00,
2013-07-24 13:35:00,84.5,75.7,29.98,West,269,11.5,11.5,75,0.00,CLR,,0.00,455.0,WeatherDisplay:10.37,2013-07-24 18:35:00,
2013-07-24 13:40:00,85.1,76.3,29.98,WSW,237,11.5,11.5,75,0.00,CLR,,0.00,485.0,WeatherDisplay:10.37,2013-07-24 18:40:00,
2013-07-24 13:45:00,85.6,76.4,29.98,West,281,10.8,10.8,74,0.00,CLR,,0.00,546.0,WeatherDisplay:10.37,2013-07-24 18:45:00,
2013-07-24 13:51:00,85.9,75.8,29.98,WSW,254,13.8,13.8,72,0.00,CLR,,0.00,431.0,WeatherDisplay:10.37,2013-07-24 18:51:00,
2013-07-24 13:56:00,86.0,75.9,29.98,West,263,13.8,13.8,72,0.00,CLR,,0.00,456.0,WeatherDisplay:10.37,2013-07-24 18:56:00,
2013-07-24 14:01:00,86.9,76.8,29.98,WSW,255,10.4,10.4,72,0.00,CLR,,0.00,488.0,WeatherDisplay:10.37,2013-07-24 19:01:00,
2013-07-24 14:06:00,87.3,76.7,29.98,West,263,12.7,12.7,71,0.00,CLR,,0.00,723.0,WeatherDisplay:10.37,2013-07-24 19:06:00,
2013-07-24 14:11:00,87.5,76.1,29.98,West,270,11.5,11.5,69,0.00,CLR,,0.00,560.0,WeatherDisplay:10.37,2013-07-24 19:11:00,
2013-07-24 14:17:00,88.5,77.9,29.98,WNW,283,9.3,9.3,71,0.00,CLR,,0.00,829.0,WeatherDisplay:10.37,2013-07-24 19:17:00,
2013-07-24 14:22:00,89.5,77.1,29.98,WNW,286,12.7,12.7,67,0.00,CLR,,0.00,663.0,WeatherDisplay:10.37,2013-07-24 19:22:00,
2013-07-24 14:27:00,89.5,75.7,29.98,WNW,284,16.1,16.1,64,0.00,CLR,,0.00,1011.0,WeatherDisplay:10.37,2013-07-24 19:27:00,
2013-07-24 14:32:00,90.7,76.8,29.98,WSW,249,16.1,16.1,64,0.00,CLR,,0.00,927.0,WeatherDisplay:10.37,2013-07-24 19:32:00,
2013-07-24 14:37:00,90.9,76.1,29.98,West,266,15.0,15.0,62,0.00,CLR,,0.00,898.0,WeatherDisplay:10.37,2013-07-24 19:37:00,
2013-07-24 14:42:00,91.5,76.6,29.98,West,275,11.5,11.5,62,0.00,CLR,,0.00,848.0,WeatherDisplay:10.37,2013-07-24 19:42:00,
2013-07-24 14:48:00,91.1,75.3,29.98,West,277,9.2,9.2,60,0.00,CLR,,0.00,872.0,WeatherDisplay:10.37,2013-07-24 19:48:00,
2013-07-24 14:53:00,92.9,75.9,29.99,WNW,293,6.9,6.9,58,0.00,CLR,,0.00,834.0,WeatherDisplay:10.37,2013-07-24 19:53:00,
2013-07-24 14:58:00,93.5,75.4,29.99,WSW,243,4.6,4.6,56,0.00,CLR,,0.00,975.0,WeatherDisplay:10.37,2013-07-24 19:58:00,
2013-07-24 15:03:00,94.9,75.7,29.99,NW,322,5.8,5.8,54,0.00,CLR,,0.00,942.0,WeatherDisplay:10.37,2013-07-24 20:03:00,
2013-07-24 15:08:00,93.5,74.4,29.99,NE,35,2.3,2.3,54,0.00,CLR,,0.00,827.0,WeatherDisplay:10.37,2013-07-24 20:08:00,
2013-07-24 15:14:00,95.4,76.7,29.99,NW,314,6.9,6.9,55,0.00,CLR,,0.00,518.0,WeatherDisplay:10.37,2013-07-24 20:14:00,
2013-07-24 15:19:00,94.2,74.4,29.99,NE,48,10.4,10.4,53,0.00,CLR,,0.00,885.0,WeatherDisplay:10.37,2013-07-24 20:19:00,
2013-07-24 15:24:00,93.0,73.9,29.99,NNE,24,8.1,8.1,54,0.00,CLR,,0.00,398.0,WeatherDisplay:10.37,2013-07-24 20:24:00,
2013-07-24 15:30:00,92.9,74.4,29.98,SW,216,2.3,2.3,55,0.00,CLR,,0.00,784.0,WeatherDisplay:10.37,2013-07-24 20:30:00,
2013-07-24 15:35:00,93.8,75.2,29.98,ENE,63,6.0,8.0,55,0.00,CLR,,0.00,767.0,WeatherDisplay:10.37,2013-07-24 20:35:00,
2013-07-24 15:40:00,94.3,74.5,29.98,NE,37,7.0,15.0,53,0.00,CLR,,0.00,772.0,WeatherDisplay:10.37,2013-07-24 20:40:00,
2013-07-24 15:45:00,93.9,74.8,29.98,NE,45,9.0,14.0,54,0.00,CLR,,0.00,781.0,WeatherDisplay:10.37,2013-07-24 20:45:00,
2013-07-24 15:50:00,93.1,74.6,29.98,NE,55,6.0,14.0,55,0.00,CLR,,0.00,772.0,WeatherDisplay:10.37,2013-07-24 20:50:00,
2013-07-24 15:55:00,93.0,73.9,29.98,ENE,67,6.0,10.0,54,0.00,CLR,,0.00,748.0,WeatherDisplay:10.37,2013-07-24 20:55:00,
2013-07-24 16:00:00,93.4,74.3,29.98,East,90,7.0,10.0,54,0.00,CLR,,0.00,809.0,WeatherDisplay:10.37,2013-07-24 21:00:00,
2013-07-24 16:05:00,93.8,74.1,29.98,NE,45,7.0,10.0,53,0.00,FEW,,0.00,611.0,WeatherDisplay:10.37,2013-07-24 21:05:00,
2013-07-24 16:10:00,93.9,74.2,29.97,NNE,25,7.0,12.0,53,0.00,CLR,,0.00,790.0,WeatherDisplay:10.37,2013-07-24 21:10:00,
2013-07-24 16:15:00,93.8,74.6,29.97,NE,52,5.0,12.0,54,0.00,CLR,,0.00,780.0,WeatherDisplay:10.37,2013-07-24 21:15:00,
2013-07-24 16:20:00,93.9,74.2,29.97,ENE,75,7.0,10.0,53,0.00,CLR,,0.00,760.0,WeatherDisplay:10.37,2013-07-24 21:20:00,
2013-07-24 16:25:00,94.0,74.3,29.97,ENE,69,9.0,15.0,53,0.00,FEW,,0.00,621.0,WeatherDisplay:10.37,2013-07-24 21:25:00,
2013-07-24 16:30:00,93.6,73.9,29.97,NE,54,7.0,12.0,53,0.00,OVC,,0.00,239.0,WeatherDisplay:10.37,2013-07-24 21:30:00,
2013-07-24 16:35:00,93.5,74.4,29.97,ENE,60,8.0,12.0,54,0.00,FEW,,0.00,651.0,WeatherDisplay:10.37,2013-07-24 21:35:00,
2013-07-24 16:40:00,93.5,73.8,29.97,ENE,64,7.0,12.0,53,0.00,SCT,,0.00,625.0,WeatherDisplay:10.37,2013-07-24 21:40:00,
2013-07-24 16:45:00,93.4,73.7,29.96,ENE,64,7.0,12.0,53,0.00,SCT,,0.00,555.0,WeatherDisplay:10.37,2013-07-24 21:45:00,
2013-07-24 16:50:00,93.5,73.8,29.97,NE,48,13.8,13.8,53,0.00,SCT,,0.00,612.0,WeatherDisplay:10.37,2013-07-24 21:50:00,
2013-07-24 16:55:00,93.4,73.7,29.94,NE,51,6.0,12.0,53,0.00,BKN,,0.00,353.0,WeatherDisplay:10.37,2013-07-24 21:55:00,
2013-07-24 17:00:00,93.6,73.9,29.94,NE,47,8.0,16.0,53,0.00,SCT,,0.00,608.0,WeatherDisplay:10.37,2013-07-24 22:00:00,
2013-07-24 17:05:00,93.8,74.1,29.93,NE,49,8.0,12.0,53,0.00,SCT,,0.00,531.0,WeatherDisplay:10.37,2013-07-24 22:05:00,
2013-07-24 17:10:00,93.7,73.5,29.93,ENE,63,5.0,12.0,52,0.00,SCT,,0.00,600.0,WeatherDisplay:10.37,2013-07-24 22:10:00,
2013-07-24 17:15:00,94.3,74.5,29.89,East,81,9.2,9.2,53,0.00,SCT,,0.00,588.0,WeatherDisplay:10.37,2013-07-24 22:15:00,
2013-07-24 17:20:00,94.3,73.4,29.92,East,84,8.0,12.0,51,0.00,SCT,,0.00,576.0,WeatherDisplay:10.37,2013-07-24 22:20:00,
2013-07-24 17:25:00,94.3,73.4,29.90,East,87,7.0,14.0,51,0.00,SCT,,0.00,581.0,WeatherDisplay:10.37,2013-07-24 22:25:00,
2013-07-24 17:30:00,94.4,73.5,29.91,ENE,61,12.0,18.0,51,0.00,SCT,,0.00,579.0,WeatherDisplay:10.37,2013-07-24 22:30:00,
2013-07-24 17:35:00,94.2,72.7,29.90,ENE,62,9.0,14.0,50,0.00,BKN,,0.00,508.0,WeatherDisplay:10.37,2013-07-24 22:35:00,
2013-07-24 17:40:00,94.1,73.2,29.90,ENE,72,7.0,15.0,51,0.00,SCT,,0.00,582.0,WeatherDisplay:10.37,2013-07-24 22:40:00,
2013-07-24 17:45:00,94.3,73.4,29.90,ENE,73,6.0,13.0,51,0.00,SCT,,0.00,618.0,WeatherDisplay:10.37,2013-07-24 22:45:00,
2013-07-24 17:50:00,94.4,73.5,29.90,ENE,74,8.0,13.0,51,0.00,SCT,,0.00,596.0,WeatherDisplay:10.37,2013-07-24 22:50:00,
2013-07-24 17:55:00,94.3,74.0,29.90,ENE,74,10.0,14.0,52,0.00,BKN,,0.00,594.0,WeatherDisplay:10.37,2013-07-24 22:55:00,
2013-07-24 18:00:00,94.1,74.4,29.90,East,83,12.0,16.0,53,0.00,BKN,,0.00,566.0,WeatherDisplay:10.37,2013-07-24 23:00:00,
2013-07-24 18:05:00,93.8,74.6,29.90,East,81,12.0,17.0,54,0.00,OVC,,0.00,361.0,WeatherDisplay:10.37,2013-07-24 23:05:00,
2013-07-24 18:10:00,93.2,74.6,29.90,East,82,8.0,15.0,55,0.00,OVC,,0.00,310.0,WeatherDisplay:10.37,2013-07-24 23:10:00,
2013-07-24 18:15:00,92.8,74.2,29.90,East,83,8.0,13.0,55,0.00,BKN,,0.00,449.0,WeatherDisplay:10.37,2013-07-24 23:15:00,
2013-07-24 18:20:00,92.7,74.7,29.92,East,81,8.0,12.0,56,0.00,BKN,,0.00,512.0,WeatherDisplay:10.37,2013-07-24 23:20:00,
2013-07-24 18:25:00,92.5,74.5,29.92,East,82,13.0,16.0,56,0.00,OVC,,0.00,353.0,WeatherDisplay:10.37,2013-07-24 23:25:00,
2013-07-24 18:30:00,92.2,74.3,29.91,East,83,9.0,14.0,56,0.00,OVC,,0.00,261.0,WeatherDisplay:10.37,2013-07-24 23:30:00,
2013-07-24 18:35:00,92.1,74.7,29.92,East,81,9.0,13.0,57,0.00,OVC,,0.00,406.0,WeatherDisplay:10.37,2013-07-24 23:35:00,
2013-07-24 18:40:00,92.0,74.0,29.93,ENE,78,9.0,13.0,56,0.00,OVC,,0.00,386.0,WeatherDisplay:10.37,2013-07-24 23:40:00,
2013-07-24 18:45:00,91.9,74.5,29.92,East,81,7.0,13.0,57,0.00,OVC,,0.00,165.0,WeatherDisplay:10.37,2013-07-24 23:45:00,
2013-07-24 18:50:00,91.8,74.4,29.91,ENE,64,11.5,11.5,57,0.00,OVC,,0.00,337.0,WeatherDisplay:10.37,2013-07-24 23:50:00,
2013-07-24 18:55:00,91.7,74.3,29.93,ENE,70,9.0,13.0,57,0.00,OVC,,0.00,310.0,WeatherDisplay:10.37,2013-07-24 23:55:00,
2013-07-24 19:00:00,91.3,73.9,29.92,ENE,72,12.0,16.0,57,0.00,OVC,,0.00,293.0,WeatherDisplay:10.37,2013-07-25 00:00:00,
2013-07-24 19:05:00,91.0,73.7,29.91,East,79,12.0,15.0,57,0.00,OVC,,0.00,276.0,WeatherDisplay:10.37,2013-07-25 00:05:00,
2013-07-24 19:10:00,90.7,74.9,29.96,East,88,16.1,16.1,60,0.00,OVC,,0.00,258.0,WeatherDisplay:10.37,2013-07-25 00:10:00,
2013-07-24 19:15:00,90.3,75.0,29.94,East,89,10.0,17.0,61,0.00,OVC,,0.00,234.0,WeatherDisplay:10.37,2013-07-25 00:15:00,
2013-07-24 19:20:00,89.7,75.4,29.91,ENE,68,17.3,17.3,63,0.00,OVC,,0.00,215.0,WeatherDisplay:10.37,2013-07-25 00:20:00,
2013-07-24 19:25:00,89.5,75.2,29.96,East,85,12.0,17.0,63,0.00,OVC,,0.00,215.0,WeatherDisplay:10.37,2013-07-25 00:25:00,
2013-07-24 19:30:00,89.2,75.4,29.97,East,84,9.0,15.0,64,0.00,OVC,,0.00,199.0,WeatherDisplay:10.37,2013-07-25 00:30:00,
2013-07-24 19:35:00,89.0,75.2,29.97,East,86,8.0,15.0,64,0.00,OVC,,0.00,185.0,WeatherDisplay:10.37,2013-07-25 00:35:00,
2013-07-24 19:40:00,88.7,75.8,29.97,East,95,12.0,15.0,66,0.00,OVC,,0.00,178.0,WeatherDisplay:10.37,2013-07-25 00:40:00,
2013-07-24 19:45:00,88.2,75.4,29.98,East,101,12.0,17.0,66,0.00,OVC,,0.00,159.0,WeatherDisplay:10.37,2013-07-25 00:45:00,
2013-07-24 19:50:00,87.6,75.3,29.98,East,82,15.0,15.0,67,0.00,OVC,,0.00,137.0,WeatherDisplay:10.37,2013-07-25 00:50:00,
2013-07-24 19:55:00,87.2,75.8,29.98,ESE,103,12.0,17.0,69,0.00,OVC,,0.00,117.0,WeatherDisplay:10.37,2013-07-25 00:55:00,
2013-07-24 20:00:00,86.8,75.8,29.98,ESE,104,10.0,16.0,70,0.00,OVC,,0.00,98.0,WeatherDisplay:10.37,2013-07-25 01:00:00,
2013-07-24 20:05:00,86.6,75.6,29.99,East,100,10.0,15.0,70,0.00,OVC,,0.00,81.0,WeatherDisplay:10.37,2013-07-25 01:05:00,
2013-07-24 20:10:00,86.4,75.9,29.99,East,94,9.0,14.0,71,0.00,OVC,,0.00,63.0,WeatherDisplay:10.37,2013-07-25 01:10:00,
2013-07-24 20:15:00,86.1,76.0,29.99,East,89,15.0,15.0,72,0.00,OVC,,0.00,28.0,WeatherDisplay:10.37,2013-07-25 01:15:00,
2013-07-24 20:20:00,85.8,75.7,29.99,East,101,17.3,17.3,72,0.00,OVC,,0.00,9.0,WeatherDisplay:10.37,2013-07-25 01:20:00,
2013-07-24 20:25:00,85.5,75.9,29.99,ESE,109,17.3,17.3,73,0.00,OVC,,0.00,6.0,WeatherDisplay:10.37,2013-07-25 01:25:00,
2013-07-24 20:31:00,85.2,75.6,30.00,East,83,12.7,12.7,73,0.00,OVC,,0.00,4.0,WeatherDisplay:10.37,2013-07-25 01:31:00,
2013-07-24 20:36:00,84.9,75.7,30.00,ESE,102,17.3,17.3,74,0.00,OVC,,0.00,3.0,WeatherDisplay:10.37,2013-07-25 01:36:00,
2013-07-24 20:41:00,84.6,75.4,30.00,ESE,113,13.8,13.8,74,0.00,OVC,,0.00,2.0,WeatherDisplay:10.37,2013-07-25 01:41:00,
2013-07-24 20:46:00,84.3,75.5,30.00,East,99,13.8,13.8,75,0.00,OVC,,0.00,2.0,WeatherDisplay:10.37,2013-07-25 01:46:00,
2013-07-24 20:52:00,84.0,75.6,30.00,ESE,102,11.4,11.4,76,0.00,OVC,,0.00,1.0,WeatherDisplay:10.37,2013-07-25 01:52:00,
2013-07-24 20:57:00,83.8,75.4,30.00,ESE,102,13.8,13.8,76,0.00,OVC,,0.00,1.0,WeatherDisplay:10.37,2013-07-25 01:57:00,
2013-07-24 21:02:00,83.5,75.5,30.00,East,92,12.7,12.7,77,0.00,CLR,,0.00,1.0,WeatherDisplay:10.37,2013-07-25 02:02:00,
2013-07-24 21:07:00,83.3,75.3,30.00,East,88,10.4,10.4,77,0.00,CLR,,0.00,1.0,WeatherDisplay:10.37,2013-07-25 02:07:00,
2013-07-24 21:12:00,83.0,75.4,30.00,ESE,108,10.4,10.4,78,0.00,CLR,,0.00,1.0,WeatherDisplay:10.37,2013-07-25 02:12:00,
2013-07-24 21:17:00,82.8,75.2,30.00,East,101,10.4,10.4,78,0.00,CLR,,0.00,1.0,WeatherDisplay:10.37,2013-07-25 02:17:00,
2013-07-24 21:23:00,82.7,75.5,30.01,East,90,11.5,11.5,79,0.00,CLR,,0.00,1.0,WeatherDisplay:10.37,2013-07-25 02:23:00,
2013-07-24 21:28:00,82.5,75.3,30.01,East,83,8.1,8.1,79,0.00,CLR,,0.00,1.0,WeatherDisplay:10.37,2013-07-25 02:28:00,
2013-07-24 21:33:00,82.2,75.0,30.01,East,99,9.2,9.2,79,0.00,CLR,,0.00,1.0,WeatherDisplay:10.37,2013-07-25 02:33:00,
2013-07-24 21:38:00,82.1,75.3,30.01,East,95,6.9,6.9,80,0.00,CLR,,0.00,1.0,WeatherDisplay:10.37,2013-07-25 02:38:00,
2013-07-24 21:43:00,81.9,75.1,30.01,East,82,6.9,6.9,80,0.00,CLR,,0.00,1.0,WeatherDisplay:10.37,2013-07-25 02:43:00,
2013-07-24 21:49:00,81.8,75.4,30.01,East,94,6.9,6.9,81,0.00,CLR,,0.00,1.0,WeatherDisplay:10.37,2013-07-25 02:49:00,
2013-07-24 21:54:00,81.7,75.3,30.02,East,87,6.9,6.9,81,0.00,CLR,,0.00,1.0,WeatherDisplay:10.37,2013-07-25 02:54:00,
2013-07-24 21:59:00,81.5,75.1,30.02,East,82,6.9,6.9,81,0.00,CLR,,0.00,1.0,WeatherDisplay:10.37,2013-07-25 02:59:00,
2013-07-24 22:04:00,81.4,75.0,30.02,ENE,76,4.6,4.6,81,0.00,CLR,,0.00,1.0,WeatherDisplay:10.37,2013-07-25 03:04:00,
2013-07-24 22:09:00,81.3,75.3,30.02,East,82,6.9,6.9,82,0.00,CLR,,0.00,1.0,WeatherDisplay:10.37,2013-07-25 03:09:00,
2013-07-24 22:15:00,81.1,75.1,30.02,East,85,5.0,7.0,82,0.00,CLR,,0.00,1.0,WeatherDisplay:10.37,2013-07-25 03:15:00,
2013-07-24 22:20:00,80.9,74.9,30.02,East,86,3.0,7.0,82,0.00,CLR,,0.00,0.0,WeatherDisplay:10.37,2013-07-25 03:20:00,
2013-07-24 22:25:00,80.8,75.1,30.02,East,80,3.0,5.0,83,0.00,CLR,,0.00,0.0,WeatherDisplay:10.37,2013-07-25 03:25:00,
2013-07-24 22:30:00,80.6,75.0,30.03,East,79,3.0,6.0,83,0.00,CLR,,0.00,0.0,WeatherDisplay:10.37,2013-07-25 03:30:00,
2013-07-24 22:35:00,80.4,74.8,30.03,ENE,72,4.6,4.6,83,0.00,CLR,,0.00,1.0,WeatherDisplay:10.37,2013-07-25 03:35:00,
2013-07-24 22:42:00,80.3,75.0,30.03,ENE,63,5.8,5.8,84,0.00,CLR,,0.00,0.0,WeatherDisplay:10.37,2013-07-25 03:42:00,
2013-07-24 22:47:00,80.1,74.8,30.04,ENE,69,6.6,6.6,84,0.00,CLR,,0.00,1.0,WeatherDisplay:10.37,2013-07-25 03:47:00,
2013-07-24 22:52:00,79.9,74.6,30.04,ENE,73,5.8,5.8,84,0.00,CLR,,0.00,2.0,WeatherDisplay:10.37,2013-07-25 03:52:00,
2013-07-24 22:57:00,79.8,74.9,30.04,ENE,73,5.8,5.8,85,0.00,CLR,,0.00,1.0,WeatherDisplay:10.37,2013-07-25 03:57:00,
2013-07-24 23:01:00,79.6,74.7,30.04,ENE,78,6.9,6.9,85,0.00,CLR,,0.00,1.0,WeatherDisplay:10.37,2013-07-25 04:01:00,
2013-07-24 23:02:00,79.6,74.7,30.04,ENE,76,5.8,5.8,85,0.00,CLR,,0.00,1.0,WeatherDisplay:10.37,2013-07-25 04:02:00,
2013-07-24 23:07:00,79.4,74.8,30.04,ENE,78,6.3,6.3,86,0.00,CLR,,0.00,1.0,WeatherDisplay:10.37,2013-07-25 04:07:00,
2013-07-24 23:12:00,79.2,74.6,30.04,ENE,74,5.8,5.8,86,0.00,CLR,,0.00,1.0,WeatherDisplay:10.37,2013-07-25 04:12:00,
2013-07-24 23:17:00,79.1,74.5,30.05,ENE,75,5.8,5.8,86,0.00,CLR,,0.00,1.0,WeatherDisplay:10.37,2013-07-25 04:17:00,
2013-07-24 23:22:00,79.0,74.8,30.05,East,82,6.6,6.6,87,0.00,CLR,,0.00,1.0,WeatherDisplay:10.37,2013-07-25 04:22:00,
2013-07-24 23:28:00,79.0,74.8,30.05,East,80,5.8,5.8,87,0.00,CLR,,0.00,1.0,WeatherDisplay:10.37,2013-07-25 04:28:00,
2013-07-24 23:33:00,78.8,74.6,30.05,ENE,72,4.6,4.6,87,0.00,CLR,,0.00,1.0,WeatherDisplay:10.37,2013-07-25 04:33:00,
2013-07-24 23:38:00,78.6,74.4,30.05,ENE,65,5.1,5.1,87,0.00,CLR,,0.00,1.0,WeatherDisplay:10.37,2013-07-25 04:38:00,
2013-07-24 23:43:00,78.5,74.3,30.05,ENE,64,4.6,4.6,87,0.00,CLR,,0.00,1.0,WeatherDisplay:10.37,2013-07-25 04:43:00,
2013-07-24 23:49:00,78.3,74.5,30.05,ENE,72,6.9,6.9,88,0.00,CLR,,0.00,1.0,WeatherDisplay:10.37,2013-07-25 04:49:00,
2013-07-24 23:54:00,78.2,74.4,30.05,ENE,58,6.9,6.9,88,0.00,CLR,,0.00,1.0,WeatherDisplay:10.37,2013-07-25 04:54:00,
2013-07-24 23:59:00,78.0,74.2,30.05,ENE,73,5.8,5.8,88,0.00,CLR,,0.00,1.0,WeatherDisplay:10.37,2013-07-25 04:59:00,